sensor_id;sensor_type;location;lat;lon;timestamp;pressure;altitude;pressure_sealevel;temperature
85122;BMP280;75480;52.260;20.916;2024-02-23T00:00:07;98241.53;;;9.88
85122;BMP280;75480;52.260;20.916;2024-02-23T00:01:41;98237.09;;;9.98
85122;BMP280;75480;52.260;20.916;2024-02-23T00:03:12;98237.84;;;9.98
85122;BMP280;75480;52.260;20.916;2024-02-23T00:04:42;98237.53;;;9.89
85122;BMP280;75480;52.260;20.916;2024-02-23T00:06:13;98239.53;;;9.88
85122;BMP280;75480;52.260;20.916;2024-02-23T00:07:45;98235.28;;;9.87
85122;BMP280;75480;52.260;20.916;2024-02-23T00:09:15;98235.72;;;9.91
85122;BMP280;75480;52.260;20.916;2024-02-23T00:10:46;98236.47;;;9.92
85122;BMP280;75480;52.260;20.916;2024-02-23T00:12:17;98246.19;;;9.93
85122;BMP280;75480;52.260;20.916;2024-02-23T00:13:49;98238.38;;;9.97
85122;BMP280;75480;52.260;20.916;2024-02-23T00:15:20;98242.50;;;9.90
85122;BMP280;75480;52.260;20.916;2024-02-23T00:16:51;98231.25;;;9.75
85122;BMP280;75480;52.260;20.916;2024-02-23T00:18:21;98237.41;;;9.81
85122;BMP280;75480;52.260;20.916;2024-02-23T00:19:52;98234.78;;;9.89
85122;BMP280;75480;52.260;20.916;2024-02-23T00:21:23;98232.13;;;9.96
85122;BMP280;75480;52.260;20.916;2024-02-23T00:22:54;98239.31;;;9.99
85122;BMP280;75480;52.260;20.916;2024-02-23T00:24:25;98241.53;;;10.01
85122;BMP280;75480;52.260;20.916;2024-02-23T00:25:56;98235.38;;;9.95
85122;BMP280;75480;52.260;20.916;2024-02-23T00:27:27;98243.78;;;10.02
85122;BMP280;75480;52.260;20.916;2024-02-23T00:28:58;98233.09;;;9.99
85122;BMP280;75480;52.260;20.916;2024-02-23T00:30:28;98227.13;;;9.95
85122;BMP280;75480;52.260;20.916;2024-02-23T00:31:59;98232.88;;;9.97
85122;BMP280;75480;52.260;20.916;2024-02-23T00:33:30;98225.66;;;9.94
85122;BMP280;75480;52.260;20.916;2024-02-23T00:35:00;98222.50;;;9.90
85122;BMP280;75480;52.260;20.916;2024-02-23T00:36:31;98239.53;;;10.01
85122;BMP280;75480;52.260;20.916;2024-02-23T00:38:02;98234.97;;;10.04
85122;BMP280;75480;52.260;20.916;2024-02-23T00:39:32;98223.78;;;10.02
85122;BMP280;75480;52.260;20.916;2024-02-23T00:41:03;98230.00;;;10.02
85122;BMP280;75480;52.260;20.916;2024-02-23T00:42:34;98227.69;;;10.06
85122;BMP280;75480;52.260;20.916;2024-02-23T00:44:04;98216.13;;;9.95
85122;BMP280;75480;52.260;20.916;2024-02-23T00:45:35;98218.78;;;10.00
85122;BMP280;75480;52.260;20.916;2024-02-23T00:47:06;98207.84;;;9.95
85122;BMP280;75480;52.260;20.916;2024-02-23T00:48:36;98212.44;;;10.05
85122;BMP280;75480;52.260;20.916;2024-02-23T00:50:07;98211.38;;;10.08
85122;BMP280;75480;52.260;20.916;2024-02-23T00:51:38;98216.53;;;10.12
85122;BMP280;75480;52.260;20.916;2024-02-23T00:53:09;98202.28;;;10.00
85122;BMP280;75480;52.260;20.916;2024-02-23T00:54:39;98210.63;;;9.95
85122;BMP280;75480;52.260;20.916;2024-02-23T00:56:10;98208.72;;;9.90
85122;BMP280;75480;52.260;20.916;2024-02-23T00:57:41;98222.81;;;9.99
85122;BMP280;75480;52.260;20.916;2024-02-23T00:59:11;98209.88;;;9.94
85122;BMP280;75480;52.260;20.916;2024-02-23T01:00:43;98211.34;;;9.95
85122;BMP280;75480;52.260;20.916;2024-02-23T01:02:14;98198.78;;;9.87
85122;BMP280;75480;52.260;20.916;2024-02-23T01:03:44;98202.06;;;9.85
85122;BMP280;75480;52.260;20.916;2024-02-23T01:05:15;98210.44;;;9.93
85122;BMP280;75480;52.260;20.916;2024-02-23T01:06:46;98194.44;;;9.91
85122;BMP280;75480;52.260;20.916;2024-02-23T01:08:16;98185.47;;;9.91
85122;BMP280;75480;52.260;20.916;2024-02-23T01:09:47;98193.59;;;9.96
85122;BMP280;75480;52.260;20.916;2024-02-23T01:11:18;98197.00;;;10.02
85122;BMP280;75480;52.260;20.916;2024-02-23T01:12:49;98174.66;;;9.93
85122;BMP280;75480;52.260;20.916;2024-02-23T01:14:20;98196.66;;;10.06
85122;BMP280;75480;52.260;20.916;2024-02-23T01:15:51;98178.16;;;9.93
85122;BMP280;75480;52.260;20.916;2024-02-23T01:17:21;98189.25;;;10.01
85122;BMP280;75480;52.260;20.916;2024-02-23T01:18:52;98177.59;;;9.95
85122;BMP280;75480;52.260;20.916;2024-02-23T01:20:23;98184.94;;;9.92
85122;BMP280;75480;52.260;20.916;2024-02-23T01:21:53;98170.09;;;9.95
85122;BMP280;75480;52.260;20.916;2024-02-23T01:23:30;98180.78;;;9.99
85122;BMP280;75480;52.260;20.916;2024-02-23T01:25:00;98180.78;;;9.99
85122;BMP280;75480;52.260;20.916;2024-02-23T01:26:31;98169.25;;;10.00
85122;BMP280;75480;52.260;20.916;2024-02-23T01:28:02;98173.25;;;9.86
85122;BMP280;75480;52.260;20.916;2024-02-23T01:29:33;98184.19;;;9.92
85122;BMP280;75480;52.260;20.916;2024-02-23T01:31:04;98188.22;;;9.91
85122;BMP280;75480;52.260;20.916;2024-02-23T01:32:38;98178.25;;;9.88
85122;BMP280;75480;52.260;20.916;2024-02-23T01:34:09;98170.31;;;9.84
85122;BMP280;75480;52.260;20.916;2024-02-23T01:35:39;98179.09;;;9.83
85122;BMP280;75480;52.260;20.916;2024-02-23T01:37:11;98178.38;;;9.82
85122;BMP280;75480;52.260;20.916;2024-02-23T01:38:42;98191.91;;;9.93
85122;BMP280;75480;52.260;20.916;2024-02-23T01:40:13;98194.75;;;10.01
85122;BMP280;75480;52.260;20.916;2024-02-23T01:41:44;98155.19;;;9.78
85122;BMP280;75480;52.260;20.916;2024-02-23T01:43:14;98194.25;;;10.02
85122;BMP280;75480;52.260;20.916;2024-02-23T01:44:45;98190.94;;;10.04
85122;BMP280;75480;52.260;20.916;2024-02-23T01:46:17;98180.16;;;10.06
85122;BMP280;75480;52.260;20.916;2024-02-23T01:47:49;98183.41;;;10.04
85122;BMP280;75480;52.260;20.916;2024-02-23T01:49:20;98172.75;;;10.01
85122;BMP280;75480;52.260;20.916;2024-02-23T01:50:52;98170.63;;;9.94
85122;BMP280;75480;52.260;20.916;2024-02-23T01:52:24;98187.16;;;9.94
85122;BMP280;75480;52.260;20.916;2024-02-23T01:53:55;98196.56;;;9.98
85122;BMP280;75480;52.260;20.916;2024-02-23T01:55:25;98190.31;;;9.98
85122;BMP280;75480;52.260;20.916;2024-02-23T01:56:58;98193.59;;;10.10
85122;BMP280;75480;52.260;20.916;2024-02-23T01:58:30;98177.84;;;9.97
85122;BMP280;75480;52.260;20.916;2024-02-23T02:00:01;98181.22;;;10.03
85122;BMP280;75480;52.260;20.916;2024-02-23T02:01:32;98175.16;;;10.04
85122;BMP280;75480;52.260;20.916;2024-02-23T02:03:04;98181.44;;;10.05
85122;BMP280;75480;52.260;20.916;2024-02-23T02:04:35;98173.59;;;10.09
85122;BMP280;75480;52.260;20.916;2024-02-23T02:06:09;98175.25;;;10.12
85122;BMP280;75480;52.260;20.916;2024-02-23T02:07:41;98168.41;;;10.19
85122;BMP280;75480;52.260;20.916;2024-02-23T02:09:14;98168.94;;;10.17
85122;BMP280;75480;52.260;20.916;2024-02-23T02:10:45;98172.41;;;10.18
85122;BMP280;75480;52.260;20.916;2024-02-23T02:12:27;98171.13;;;10.19
85122;BMP280;75480;52.260;20.916;2024-02-23T02:13:58;98168.41;;;10.19
85122;BMP280;75480;52.260;20.916;2024-02-23T02:15:29;98163.41;;;10.17
85122;BMP280;75480;52.260;20.916;2024-02-23T02:16:59;98172.81;;;10.22
85122;BMP280;75480;52.260;20.916;2024-02-23T02:18:30;98158.53;;;10.23
85122;BMP280;75480;52.260;20.916;2024-02-23T02:20:02;98157.78;;;10.23
85122;BMP280;75480;52.260;20.916;2024-02-23T02:21:37;98146.91;;;10.17
85122;BMP280;75480;52.260;20.916;2024-02-23T02:23:08;98147.72;;;10.12
85122;BMP280;75480;52.260;20.916;2024-02-23T02:24:39;98159.72;;;10.15
85122;BMP280;75480;52.260;20.916;2024-02-23T02:26:12;98161.31;;;10.10
85122;BMP280;75480;52.260;20.916;2024-02-23T02:27:43;98164.81;;;10.11
85122;BMP280;75480;52.260;20.916;2024-02-23T02:29:15;98154.66;;;10.05
85122;BMP280;75480;52.260;20.916;2024-02-23T02:30:46;98150.84;;;10.08
85122;BMP280;75480;52.260;20.916;2024-02-23T02:32:17;98137.91;;;10.03
85122;BMP280;75480;52.260;20.916;2024-02-23T02:33:47;98150.63;;;10.06
85122;BMP280;75480;52.260;20.916;2024-02-23T02:35:18;98156.34;;;10.08
85122;BMP280;75480;52.260;20.916;2024-02-23T02:36:49;98152.94;;;10.16
85122;BMP280;75480;52.260;20.916;2024-02-23T02:38:21;98140.34;;;10.07
85122;BMP280;75480;52.260;20.916;2024-02-23T02:39:52;98159.94;;;10.17
85122;BMP280;75480;52.260;20.916;2024-02-23T02:41:24;98144.38;;;10.06
85122;BMP280;75480;52.260;20.916;2024-02-23T02:42:58;98155.16;;;10.04
85122;BMP280;75480;52.260;20.916;2024-02-23T02:44:28;98146.28;;;9.98
85122;BMP280;75480;52.260;20.916;2024-02-23T02:46:01;98155.72;;;10.02
85122;BMP280;75480;52.260;20.916;2024-02-23T02:47:32;98154.66;;;10.05
85122;BMP280;75480;52.260;20.916;2024-02-23T02:49:03;98153.69;;;10.03
85122;BMP280;75480;52.260;20.916;2024-02-23T02:50:34;98152.63;;;10.06
85122;BMP280;75480;52.260;20.916;2024-02-23T02:52:04;98154.22;;;10.01
85122;BMP280;75480;52.260;20.916;2024-02-23T02:53:35;98146.09;;;9.96
85122;BMP280;75480;52.260;20.916;2024-02-23T02:55:06;98161.94;;;10.03
85122;BMP280;75480;52.260;20.916;2024-02-23T02:56:44;98160.16;;;10.05
85122;BMP280;75480;52.260;20.916;2024-02-23T02:58:16;98157.41;;;10.05
85122;BMP280;75480;52.260;20.916;2024-02-23T02:59:47;98166.28;;;10.12
85122;BMP280;75480;52.260;20.916;2024-02-23T03:01:20;98159.47;;;10.13
85122;BMP280;75480;52.260;20.916;2024-02-23T03:02:50;98152.31;;;10.10
85122;BMP280;75480;52.260;20.916;2024-02-23T03:04:21;98156.09;;;10.20
85122;BMP280;75480;52.260;20.916;2024-02-23T03:05:52;98155.81;;;10.10
85122;BMP280;75480;52.260;20.916;2024-02-23T03:07:22;98154.31;;;10.09
85122;BMP280;75480;52.260;20.916;2024-02-23T03:08:53;98168.94;;;10.17
85122;BMP280;75480;52.260;20.916;2024-02-23T03:10:24;98166.38;;;10.19
85122;BMP280;75480;52.260;20.916;2024-02-23T03:11:55;98158.31;;;10.21
85122;BMP280;75480;52.260;20.916;2024-02-23T03:13:25;98164.06;;;10.10
85122;BMP280;75480;52.260;20.916;2024-02-23T03:14:56;98166.91;;;10.18
85122;BMP280;75480;52.260;20.916;2024-02-23T03:16:27;98159.84;;;10.09
85122;BMP280;75480;52.260;20.916;2024-02-23T03:17:59;98168.72;;;10.15
85122;BMP280;75480;52.260;20.916;2024-02-23T03:19:32;98171.78;;;10.12
85122;BMP280;75480;52.260;20.916;2024-02-23T03:21:03;98163.22;;;10.02
85122;BMP280;75480;52.260;20.916;2024-02-23T03:22:34;98175.16;;;10.04
85122;BMP280;75480;52.260;20.916;2024-02-23T03:24:05;98178.25;;;10.01
85122;BMP280;75480;52.260;20.916;2024-02-23T03:25:35;98179.09;;;9.96
85122;BMP280;75480;52.260;20.916;2024-02-23T03:27:06;98176.78;;;10.00
85122;BMP280;75480;52.260;20.916;2024-02-23T03:28:37;98189.78;;;9.99
85122;BMP280;75480;52.260;20.916;2024-02-23T03:30:08;98183.34;;;9.97
85122;BMP280;75480;52.260;20.916;2024-02-23T03:31:38;98170.31;;;9.84
85122;BMP280;75480;52.260;20.916;2024-02-23T03:33:09;98189.06;;;9.99
85122;BMP280;75480;52.260;20.916;2024-02-23T03:34:40;98179.84;;;9.96
85122;BMP280;75480;52.260;20.916;2024-02-23T03:36:11;98190.63;;;9.94
85122;BMP280;75480;52.260;20.916;2024-02-23T03:37:41;98182.50;;;9.89
85122;BMP280;75480;52.260;20.916;2024-02-23T03:39:12;98185.03;;;9.87
85122;BMP280;75480;52.260;20.916;2024-02-23T03:40:43;98180.28;;;9.74
85122;BMP280;75480;52.260;20.916;2024-02-23T03:42:13;98164.19;;;9.65
85122;BMP280;75480;52.260;20.916;2024-02-23T03:43:44;98188.53;;;9.74
85122;BMP280;75480;52.260;20.916;2024-02-23T03:45:15;98187.47;;;9.77
85122;BMP280;75480;52.260;20.916;2024-02-23T03:46:45;98184.91;;;9.53
85122;BMP280;75480;52.260;20.916;2024-02-23T03:48:16;98192.41;;;9.52
85122;BMP280;75480;52.260;20.916;2024-02-23T03:49:46;98185.75;;;9.48
85122;BMP280;75480;52.260;20.916;2024-02-23T03:51:17;98194.09;;;9.55
85122;BMP280;75480;52.260;20.916;2024-02-23T03:52:48;98210.28;;;9.59
85122;BMP280;75480;52.260;20.916;2024-02-23T03:54:18;98210.94;;;9.65
85122;BMP280;75480;52.260;20.916;2024-02-23T03:55:49;98208.63;;;9.69
85122;BMP280;75480;52.260;20.916;2024-02-23T03:57:20;98212.84;;;9.57
85122;BMP280;75480;52.260;20.916;2024-02-23T03:58:50;98215.38;;;9.55
85122;BMP280;75480;52.260;20.916;2024-02-23T04:00:21;98213.13;;;9.53
85122;BMP280;75480;52.260;20.916;2024-02-23T04:01:53;98200.97;;;9.49
85122;BMP280;75480;52.260;20.916;2024-02-23T04:03:24;98204.38;;;9.55
85122;BMP280;75480;52.260;20.916;2024-02-23T04:04:55;98212.63;;;9.55
85122;BMP280;75480;52.260;20.916;2024-02-23T04:06:25;98217.38;;;9.54
85122;BMP280;75480;52.260;20.916;2024-02-23T04:07:56;98223.41;;;9.53
85122;BMP280;75480;52.260;20.916;2024-02-23T04:09:27;98222.66;;;9.52
85122;BMP280;75480;52.260;20.916;2024-02-23T04:10:57;98216.41;;;9.52
85122;BMP280;75480;52.260;20.916;2024-02-23T04:12:28;98219.38;;;9.54
85122;BMP280;75480;52.260;20.916;2024-02-23T04:13:59;98212.94;;;9.51
85122;BMP280;75480;52.260;20.916;2024-02-23T04:15:30;98219.38;;;9.54
85122;BMP280;75480;52.260;20.916;2024-02-23T04:17:04;98230.16;;;9.52
85122;BMP280;75480;52.260;20.916;2024-02-23T04:18:35;98222.97;;;9.49
85122;BMP280;75480;52.260;20.916;2024-02-23T04:20:07;98225.94;;;9.51
85122;BMP280;75480;52.260;20.916;2024-02-23T04:21:38;98226.47;;;9.49
85122;BMP280;75480;52.260;20.916;2024-02-23T04:23:09;98215.13;;;9.39
85122;BMP280;75480;52.260;20.916;2024-02-23T04:24:40;98223.59;;;9.41
85122;BMP280;75480;52.260;20.916;2024-02-23T04:26:11;98235.13;;;9.53
85122;BMP280;75480;52.260;20.916;2024-02-23T04:27:42;98216.47;;;9.33
85122;BMP280;75480;52.260;20.916;2024-02-23T04:29:13;98232.53;;;9.29
85122;BMP280;75480;52.260;20.916;2024-02-23T04:30:44;98215.84;;;9.27
85122;BMP280;75480;52.260;20.916;2024-02-23T04:32:15;98239.44;;;9.35
85122;BMP280;75480;52.260;20.916;2024-02-23T04:33:46;98225.47;;;9.33
85122;BMP280;75480;52.260;20.916;2024-02-23T04:35:16;98232.66;;;9.36
85122;BMP280;75480;52.260;20.916;2024-02-23T04:36:48;98240.31;;;9.43
85122;BMP280;75480;52.260;20.916;2024-02-23T04:38:18;98234.66;;;9.36
85122;BMP280;75480;52.260;20.916;2024-02-23T04:39:49;98234.88;;;9.38
85122;BMP280;75480;52.260;20.916;2024-02-23T04:41:20;98243.13;;;9.38
85122;BMP280;75480;52.260;20.916;2024-02-23T04:42:54;98235.84;;;9.40
85122;BMP280;75480;52.260;20.916;2024-02-23T04:44:25;98243.00;;;9.30
85122;BMP280;75480;52.260;20.916;2024-02-23T04:45:56;98241.44;;;9.35
85122;BMP280;75480;52.260;20.916;2024-02-23T04:47:27;98242.09;;;9.41
85122;BMP280;75480;52.260;20.916;2024-02-23T04:48:57;98236.81;;;9.43
85122;BMP280;75480;52.260;20.916;2024-02-23T04:50:28;98239.78;;;9.45
85122;BMP280;75480;52.260;20.916;2024-02-23T04:51:59;98240.81;;;9.42
85122;BMP280;75480;52.260;20.916;2024-02-23T04:53:30;98252.34;;;9.40
85122;BMP280;75480;52.260;20.916;2024-02-23T04:55:00;98253.31;;;9.43
85122;BMP280;75480;52.260;20.916;2024-02-23T04:56:32;98253.00;;;9.47
85122;BMP280;75480;52.260;20.916;2024-02-23T04:58:03;98258.41;;;9.52
85122;BMP280;75480;52.260;20.916;2024-02-23T04:59:34;98243.34;;;9.40
85122;BMP280;75480;52.260;20.916;2024-02-23T05:01:05;98259.53;;;9.43
85122;BMP280;75480;52.260;20.916;2024-02-23T05:02:35;98256.06;;;9.43
85122;BMP280;75480;52.260;20.916;2024-02-23T05:04:06;98255.75;;;9.47
85122;BMP280;75480;52.260;20.916;2024-02-23T05:05:37;98258.72;;;9.49
85122;BMP280;75480;52.260;20.916;2024-02-23T05:07:07;98253.19;;;9.35
85122;BMP280;75480;52.260;20.916;2024-02-23T05:08:38;98258.75;;;9.30
85122;BMP280;75480;52.260;20.916;2024-02-23T05:10:09;98262.91;;;9.36
85122;BMP280;75480;52.260;20.916;2024-02-23T05:11:40;98255.06;;;9.27
85122;BMP280;75480;52.260;20.916;2024-02-23T05:13:13;98247.59;;;9.22
85122;BMP280;75480;52.260;20.916;2024-02-23T05:14:44;98266.41;;;9.37
85122;BMP280;75480;52.260;20.916;2024-02-23T05:16:14;98274.00;;;9.31
85122;BMP280;75480;52.260;20.916;2024-02-23T05:17:45;98278.97;;;9.32
85122;BMP280;75480;52.260;20.916;2024-02-23T05:19:16;98276.22;;;9.32
85122;BMP280;75480;52.260;20.916;2024-02-23T05:20:47;98268.19;;;9.34
85122;BMP280;75480;52.260;20.916;2024-02-23T05:22:18;98272.13;;;9.39
85122;BMP280;75480;52.260;20.916;2024-02-23T05:23:49;98272.94;;;9.34
85122;BMP280;75480;52.260;20.916;2024-02-23T05:25:20;98278.88;;;9.38
85122;BMP280;75480;52.260;20.916;2024-02-23T05:26:51;98287.03;;;9.43
85122;BMP280;75480;52.260;20.916;2024-02-23T05:28:21;98289.44;;;9.34
85122;BMP280;75480;52.260;20.916;2024-02-23T05:29:52;98282.38;;;9.38
85122;BMP280;75480;52.260;20.916;2024-02-23T05:31:49;98292.09;;;9.39
85122;BMP280;75480;52.260;20.916;2024-02-23T05:33:20;98273.78;;;9.29
85122;BMP280;75480;52.260;20.916;2024-02-23T05:34:53;98287.34;;;9.40
85122;BMP280;75480;52.260;20.916;2024-02-23T05:36:24;98289.78;;;9.43
85122;BMP280;75480;52.260;20.916;2024-02-23T05:37:55;98280.22;;;9.31
85122;BMP280;75480;52.260;20.916;2024-02-23T05:39:26;98294.03;;;9.45
85122;BMP280;75480;52.260;20.916;2024-02-23T05:40:56;98292.63;;;9.38
85122;BMP280;75480;52.260;20.916;2024-02-23T05:42:27;98291.44;;;9.33
85122;BMP280;75480;52.260;20.916;2024-02-23T05:43:58;98307.09;;;9.38
85122;BMP280;75480;52.260;20.916;2024-02-23T05:45:28;98295.97;;;9.31
85122;BMP280;75480;52.260;20.916;2024-02-23T05:46:59;98311.00;;;9.30
85122;BMP280;75480;52.260;20.916;2024-02-23T05:48:30;98308.16;;;9.35
85122;BMP280;75480;52.260;20.916;2024-02-23T05:50:01;98282.63;;;9.22
85122;BMP280;75480;52.260;20.916;2024-02-23T05:51:31;98315.44;;;9.33
85122;BMP280;75480;52.260;20.916;2024-02-23T05:53:02;98304.22;;;9.31
85122;BMP280;75480;52.260;20.916;2024-02-23T05:54:35;98318.41;;;9.35
85122;BMP280;75480;52.260;20.916;2024-02-23T05:56:05;98317.16;;;9.36
85122;BMP280;75480;52.260;20.916;2024-02-23T05:57:36;98317.88;;;9.36
85122;BMP280;75480;52.260;20.916;2024-02-23T05:59:07;98330.06;;;9.41
85122;BMP280;75480;52.260;20.916;2024-02-23T06:00:37;98326.13;;;9.36
85122;BMP280;75480;52.260;20.916;2024-02-23T06:02:09;98331.84;;;9.38
85122;BMP280;75480;52.260;20.916;2024-02-23T06:03:39;98328.44;;;9.32
85122;BMP280;75480;52.260;20.916;2024-02-23T06:05:11;98337.88;;;9.37
85122;BMP280;75480;52.260;20.916;2024-02-23T06:06:42;98336.16;;;9.34
85122;BMP280;75480;52.260;20.916;2024-02-23T06:08:16;98342.41;;;9.34
85122;BMP280;75480;52.260;20.916;2024-02-23T06:09:46;98339.88;;;9.36
85122;BMP280;75480;52.260;20.916;2024-02-23T06:11:17;98343.97;;;9.30
85122;BMP280;75480;52.260;20.916;2024-02-23T06:12:48;98352.88;;;9.36
85122;BMP280;75480;52.260;20.916;2024-02-23T06:14:18;98350.88;;;9.36
85122;BMP280;75480;52.260;20.916;2024-02-23T06:15:49;98342.94;;;9.33
85122;BMP280;75480;52.260;20.916;2024-02-23T06:17:20;98341.00;;;9.28
85122;BMP280;75480;52.260;20.916;2024-02-23T06:18:51;98348.03;;;9.42
85122;BMP280;75480;52.260;20.916;2024-02-23T06:20:22;98343.44;;;9.31
85122;BMP280;75480;52.260;20.916;2024-02-23T06:21:52;98352.66;;;9.34
85122;BMP280;75480;52.260;20.916;2024-02-23T06:23:23;98355.94;;;9.32
85122;BMP280;75480;52.260;20.916;2024-02-23T06:24:54;98343.53;;;9.26
85122;BMP280;75480;52.260;20.916;2024-02-23T06:26:24;98345.22;;;9.29
85122;BMP280;75480;52.260;20.916;2024-02-23T06:27:55;98348.34;;;9.38
85122;BMP280;75480;52.260;20.916;2024-02-23T06:29:26;98356.91;;;9.35
85122;BMP280;75480;52.260;20.916;2024-02-23T06:30:56;98359.66;;;9.35
85122;BMP280;75480;52.260;20.916;2024-02-23T06:32:27;98365.94;;;9.49
85122;BMP280;75480;52.260;20.916;2024-02-23T06:33:59;98369.28;;;9.41
85122;BMP280;75480;52.260;20.916;2024-02-23T06:35:29;98367.22;;;9.48
85122;BMP280;75480;52.260;20.916;2024-02-23T06:37:00;98370.91;;;9.50
85122;BMP280;75480;52.260;20.916;2024-02-23T06:38:31;98379.63;;;9.54
85122;BMP280;75480;52.260;20.916;2024-02-23T06:40:01;98374.78;;;9.41
85122;BMP280;75480;52.260;20.916;2024-02-23T06:41:33;98379.19;;;9.50
85122;BMP280;75480;52.260;20.916;2024-02-23T06:43:04;98384.16;;;9.52
85122;BMP280;75480;52.260;20.916;2024-02-23T06:44:34;98382.06;;;9.58
85122;BMP280;75480;52.260;20.916;2024-02-23T06:46:08;98395.28;;;9.59
85122;BMP280;75480;52.260;20.916;2024-02-23T06:47:39;98369.75;;;9.46
85122;BMP280;75480;52.260;20.916;2024-02-23T06:49:11;98387.88;;;9.54
85122;BMP280;75480;52.260;20.916;2024-02-23T06:50:41;98383.63;;;9.53
85122;BMP280;75480;52.260;20.916;2024-02-23T06:52:12;98392.09;;;9.55
85122;BMP280;75480;52.260;20.916;2024-02-23T06:53:43;98389.56;;;9.57
85122;BMP280;75480;52.260;20.916;2024-02-23T06:55:13;98391.88;;;9.53
85122;BMP280;75480;52.260;20.916;2024-02-23T06:56:44;98392.19;;;9.50
85122;BMP280;75480;52.260;20.916;2024-02-23T06:58:15;98399.31;;;9.58
85122;BMP280;75480;52.260;20.916;2024-02-23T06:59:47;98396.03;;;9.60
85122;BMP280;75480;52.260;20.916;2024-02-23T07:01:20;98394.25;;;9.62
85122;BMP280;75480;52.260;20.916;2024-02-23T07:02:50;98403.25;;;9.63
85122;BMP280;75480;52.260;20.916;2024-02-23T07:04:21;98402.19;;;9.66
85122;BMP280;75480;52.260;20.916;2024-02-23T07:05:52;98398.94;;;9.67
85122;BMP280;75480;52.260;20.916;2024-02-23T07:07:23;98411.31;;;9.74
85122;BMP280;75480;52.260;20.916;2024-02-23T07:08:53;98398.47;;;9.63
85122;BMP280;75480;52.260;20.916;2024-02-23T07:10:25;98407.84;;;9.73
85122;BMP280;75480;52.260;20.916;2024-02-23T07:11:56;98414.00;;;9.80
85122;BMP280;75480;52.260;20.916;2024-02-23T07:13:26;98419.41;;;9.85
85122;BMP280;75480;52.260;20.916;2024-02-23T07:14:57;98423.13;;;9.88
85122;BMP280;75480;52.260;20.916;2024-02-23T07:16:28;98416.00;;;9.79
85122;BMP280;75480;52.260;20.916;2024-02-23T07:17:59;98427.66;;;9.85
85122;BMP280;75480;52.260;20.916;2024-02-23T07:19:29;98423.13;;;9.88
85122;BMP280;75480;52.260;20.916;2024-02-23T07:21:00;98422.25;;;9.80
85122;BMP280;75480;52.260;20.916;2024-02-23T07:22:32;98427.16;;;9.87
85122;BMP280;75480;52.260;20.916;2024-02-23T07:24:03;98401.16;;;9.69
85122;BMP280;75480;52.260;20.916;2024-02-23T07:25:34;98430.13;;;9.89
85122;BMP280;75480;52.260;20.916;2024-02-23T07:27:04;98427.25;;;9.94
85122;BMP280;75480;52.260;20.916;2024-02-23T07:28:35;98422.16;;;9.85
85122;BMP280;75480;52.260;20.916;2024-02-23T07:30:06;98441.34;;;9.91
85122;BMP280;75480;52.260;20.916;2024-02-23T07:31:37;98432.34;;;9.90
85122;BMP280;75480;52.260;20.916;2024-02-23T07:33:08;98430.94;;;9.84
85122;BMP280;75480;52.260;20.916;2024-02-23T07:34:38;98438.06;;;9.92
85122;BMP280;75480;52.260;20.916;2024-02-23T07:36:14;98438.59;;;9.91
85122;BMP280;75480;52.260;20.916;2024-02-23T07:37:45;98432.25;;;9.96
85122;BMP280;75480;52.260;20.916;2024-02-23T07:39:16;98442.66;;;10.03
85122;BMP280;75480;52.260;20.916;2024-02-23T07:40:47;98436.94;;;10.01
85122;BMP280;75480;52.260;20.916;2024-02-23T07:42:17;98439.59;;;10.06
85122;BMP280;75480;52.260;20.916;2024-02-23T07:43:48;98440.56;;;10.09
85122;BMP280;75480;52.260;20.916;2024-02-23T07:45:19;98456.00;;;10.12
85122;BMP280;75480;52.260;20.916;2024-02-23T07:46:50;98455.47;;;10.00
85122;BMP280;75480;52.260;20.916;2024-02-23T07:48:22;98455.38;;;10.06
85122;BMP280;75480;52.260;20.916;2024-02-23T07:49:53;98462.22;;;9.99
85122;BMP280;75480;52.260;20.916;2024-02-23T07:51:24;98467.50;;;9.97
85122;BMP280;75480;52.260;20.916;2024-02-23T07:52:55;98462.63;;;10.03
85122;BMP280;75480;52.260;20.916;2024-02-23T07:54:25;98469.88;;;10.06
85122;BMP280;75480;52.260;20.916;2024-02-23T07:55:56;98472.84;;;10.08
85122;BMP280;75480;52.260;20.916;2024-02-23T07:57:35;98455.88;;;10.04
85122;BMP280;75480;52.260;20.916;2024-02-23T07:59:06;98454.38;;;10.03
85122;BMP280;75480;52.260;20.916;2024-02-23T08:00:37;98479.22;;;10.17
85122;BMP280;75480;52.260;20.916;2024-02-23T08:02:08;98477.00;;;10.15
85122;BMP280;75480;52.260;20.916;2024-02-23T08:03:39;98491.72;;;10.18
85122;BMP280;75480;52.260;20.916;2024-02-23T08:05:10;98482.25;;;10.13
85122;BMP280;75480;52.260;20.916;2024-02-23T08:06:40;98491.25;;;10.14
85122;BMP280;75480;52.260;20.916;2024-02-23T08:08:11;98487.50;;;10.17
85122;BMP280;75480;52.260;20.916;2024-02-23T08:09:42;98482.72;;;10.17
85122;BMP280;75480;52.260;20.916;2024-02-23T08:11:13;98478.56;;;10.11
85122;BMP280;75480;52.260;20.916;2024-02-23T08:12:44;98479.97;;;10.17
85122;BMP280;75480;52.260;20.916;2024-02-23T08:14:14;98483.69;;;10.20
85122;BMP280;75480;52.260;20.916;2024-02-23T08:15:45;98485.88;;;10.21
85122;BMP280;75480;52.260;20.916;2024-02-23T08:17:16;98488.66;;;10.21
85122;BMP280;75480;52.260;20.916;2024-02-23T08:18:47;98498.19;;;10.20
85122;BMP280;75480;52.260;20.916;2024-02-23T08:20:18;98482.25;;;10.13
85122;BMP280;75480;52.260;20.916;2024-02-23T08:21:48;98498.38;;;10.22
85122;BMP280;75480;52.260;20.916;2024-02-23T08:23:19;98494.63;;;10.25
85122;BMP280;75480;52.260;20.916;2024-02-23T08:24:50;98510.81;;;10.29
85122;BMP280;75480;52.260;20.916;2024-02-23T08:26:21;98518.13;;;10.26
85122;BMP280;75480;52.260;20.916;2024-02-23T08:27:52;98510.09;;;10.28
85122;BMP280;75480;52.260;20.916;2024-02-23T08:29:23;98519.53;;;10.33
85122;BMP280;75480;52.260;20.916;2024-02-23T08:30:53;98508.72;;;10.35
85122;BMP280;75480;52.260;20.916;2024-02-23T08:32:24;98516.38;;;10.42
85122;BMP280;75480;52.260;20.916;2024-02-23T08:33:55;98506.63;;;10.41
85122;BMP280;75480;52.260;20.916;2024-02-23T08:35:26;98504.72;;;10.36
85122;BMP280;75480;52.260;20.916;2024-02-23T08:36:57;98518.81;;;10.46
85122;BMP280;75480;52.260;20.916;2024-02-23T08:38:27;98520.75;;;10.51
85122;BMP280;75480;52.260;20.916;2024-02-23T08:39:58;98522.00;;;10.50
85122;BMP280;75480;52.260;20.916;2024-02-23T08:41:29;98529.28;;;10.47